Time;durP1;ratioP1;P1;durP2;ratioP2;P2;SDS_P1;SDS_P2;PMS_P1;PMS_P2;Temp;Humidity;BMP_temperature;BMP_pressure;BME280_temperature;BME280_humidity;BME280_pressure;Samples;Min_cycle;Max_cycle;Signal;HPM_P1;HPM_P2
2023/10/17 00:00:27;;;;;;;4.10;1.80;;;;;;;;;;5095138;28;41251;-72
2023/10/17 00:02:56;;;;;;;3.45;2.40;;;;;;;;;;5105899;28;42001;-72
2023/10/17 00:05:25;;;;;;;2.50;1.73;;;;;;;;;;5108910;28;40531;-72
2023/10/17 00:07:58;;;;;;;4.55;2.15;;;;;;;;;;5100841;27;41840;-72
2023/10/17 00:10:32;;;;;;;3.72;1.88;;;;;;;;;;5104762;28;42140;-72
2023/10/17 00:13:18;;;;;;;3.03;1.85;;;;;;;;;;5088390;28;39824;-72
2023/10/17 00:15:46;;;;;;;2.50;2.08;;;;;;;;;;5088502;28;42170;-72
2023/10/17 00:18:18;;;;;;;3.17;2.00;;;;;;;;;;5098847;27;40653;-72
2023/10/17 00:20:51;;;;;;;3.58;2.22;;;;;;;;;;5085333;27;41377;-72
2023/10/17 00:23:21;;;;;;;2.72;2.10;;;;;;;;;;5100007;27;42297;-72
2023/10/17 00:25:49;;;;;;;3.10;1.98;;;;;;;;;;5088959;28;41800;-72
2023/10/17 00:28:20;;;;;;;2.67;1.83;;;;;;;;;;5108202;27;41370;-72
2023/10/17 00:30:49;;;;;;;2.90;1.65;;;;;;;;;;5105491;28;43125;-72
2023/10/17 00:33:23;;;;;;;2.25;1.83;;;;;;;;;;5104399;28;39467;-72
2023/10/17 00:35:52;;;;;;;6.32;2.13;;;;;;;;;;5094332;28;42145;-72
2023/10/17 00:38:23;;;;;;;2.25;1.30;;;;;;;;;;5091690;28;40358;-72
2023/10/17 00:40:51;;;;;;;2.47;1.92;;;;;;;;;;5107980;28;41442;-72
2023/10/17 00:43:23;;;;;;;2.80;1.98;;;;;;;;;;5089410;28;41453;-72
2023/10/17 00:45:51;;;;;;;2.28;1.70;;;;;;;;;;5094635;28;40989;-72
2023/10/17 00:48:20;;;;;;;3.38;2.15;;;;;;;;;;5105046;27;40243;-72
2023/10/17 00:50:50;;;;;;;2.75;2.03;;;;;;;;;;5095059;28;40858;-72
2023/10/17 00:53:19;;;;;;;4.82;1.58;;;;;;;;;;5104004;28;38882;-72
2023/10/17 00:55:56;;;;;;;3.05;1.70;;;;;;;;;;5108045;28;41525;-72
2023/10/17 00:58:27;;;;;;;2.30;1.90;;;;;;;;;;5085121;28;43071;-72
2023/10/17 01:01:09;;;;;;;2.42;1.88;;;;;;;;;;5098207;28;42492;-72
2023/10/17 01:03:41;;;;;;;2.58;1.77;;;;;;;;;;5093172;28;42854;-72
2023/10/17 01:06:23;;;;;;;3.08;1.90;;;;;;;;;;5102982;27;40506;-72
2023/10/17 01:08:53;;;;;;;3.05;1.70;;;;;;;;;;5084519;28;42544;-72
2023/10/17 01:11:22;;;;;;;2.30;1.75;;;;;;;;;;5088499;28;41741;-72
2023/10/17 01:13:52;;;;;;;4.35;1.75;;;;;;;;;;5102975;28;40144;-72
2023/10/17 01:16:21;;;;;;;2.67;1.80;;;;;;;;;;5104987;28;42299;-72
2023/10/17 01:18:49;;;;;;;2.72;1.77;;;;;;;;;;5091538;27;43066;-72
2023/10/17 01:21:19;;;;;;;5.00;2.22;;;;;;;;;;5095531;28;41495;-72
2023/10/17 01:23:48;;;;;;;2.40;1.73;;;;;;;;;;5105629;28;40802;-72
2023/10/17 01:26:20;;;;;;;2.72;1.90;;;;;;;;;;5091132;28;41236;-72
2023/10/17 01:28:49;;;;;;;2.17;1.60;;;;;;;;;;5095514;28;40106;-71
2023/10/17 01:31:22;;;;;;;2.75;1.95;;;;;;;;;;5092038;27;40657;-72
2023/10/17 01:33:51;;;;;;;2.05;1.40;;;;;;;;;;5102350;28;42806;-72
2023/10/17 01:36:19;;;;;;;2.15;1.70;;;;;;;;;;5097725;28;41285;-72
2023/10/17 01:38:49;;;;;;;2.40;1.45;;;;;;;;;;5108706;27;42952;-72
2023/10/17 01:41:19;;;;;;;1.98;1.60;;;;;;;;;;5111445;27;41078;-72
2023/10/17 01:43:47;;;;;;;2.30;1.50;;;;;;;;;;5106971;28;42136;-72
2023/10/17 01:46:21;;;;;;;2.67;1.50;;;;;;;;;;5096459;28;40439;-71
2023/10/17 01:48:50;;;;;;;2.15;1.80;;;;;;;;;;5090943;27;41317;-72
2023/10/17 01:51:19;;;;;;;2.78;1.80;;;;;;;;;;5102870;28;42027;-72
2023/10/17 01:53:50;;;;;;;2.28;1.65;;;;;;;;;;5098258;27;40481;-72
2023/10/17 01:56:21;;;;;;;1.38;1.27;;;;;;;;;;5102490;27;41929;-72
2023/10/17 01:58:50;;;;;;;3.50;1.50;;;;;;;;;;5099285;28;42443;-72
2023/10/17 02:01:24;;;;;;;2.05;1.75;;;;;;;;;;5106564;27;38903;-72
2023/10/17 02:03:53;;;;;;;2.17;1.55;;;;;;;;;;5109670;28;41457;-72
2023/10/17 02:06:22;;;;;;;1.50;1.20;;;;;;;;;;5096784;28;41031;-72
2023/10/17 02:08:54;;;;;;;3.28;1.95;;;;;;;;;;5109639;28;41915;-72
2023/10/17 02:11:27;;;;;;;1.95;1.40;;;;;;;;;;5090354;28;42319;-72
2023/10/17 02:13:56;;;;;;;2.17;1.55;;;;;;;;;;5098193;27;40044;-72
2023/10/17 02:16:24;;;;;;;1.70;1.30;;;;;;;;;;5111338;27;41808;-72
2023/10/17 02:18:54;;;;;;;2.95;1.73;;;;;;;;;;5099573;28;40568;-71
2023/10/17 02:21:22;;;;;;;3.35;1.48;;;;;;;;;;5089434;28;38633;-72
2023/10/17 02:23:50;;;;;;;2.42;1.48;;;;;;;;;;5109955;27;41503;-72
2023/10/17 02:26:21;;;;;;;2.08;1.38;;;;;;;;;;5111617;28;41983;-72
2023/10/17 02:28:52;;;;;;;2.45;1.30;;;;;;;;;;5102036;28;41616;-72
2023/10/17 02:31:27;;;;;;;2.47;1.38;;;;;;;;;;5100762;28;41723;-72
2023/10/17 02:33:55;;;;;;;2.35;1.60;;;;;;;;;;5093080;27;40095;-72
2023/10/17 02:36:24;;;;;;;1.92;1.48;;;;;;;;;;5095036;28;42558;-72
2023/10/17 02:38:52;;;;;;;2.13;1.45;;;;;;;;;;5109407;28;42227;-71
2023/10/17 02:41:22;;;;;;;2.42;1.50;;;;;;;;;;5110969;28;41070;-72
2023/10/17 02:43:53;;;;;;;1.90;1.50;;;;;;;;;;5106489;27;41360;-72
2023/10/17 02:46:26;;;;;;;2.33;1.50;;;;;;;;;;5087857;28;41506;-72
2023/10/17 02:48:54;;;;;;;2.35;1.65;;;;;;;;;;5090235;27;40234;-72
2023/10/17 02:51:34;;;;;;;2.00;1.38;;;;;;;;;;5100457;27;42069;-72
2023/10/17 02:54:05;;;;;;;2.30;1.33;;;;;;;;;;5090253;28;40340;-72
2023/10/17 02:56:38;;;;;;;2.38;1.52;;;;;;;;;;5097469;28;41367;-72
2023/10/17 02:59:09;;;;;;;1.50;1.20;;;;;;;;;;5103751;28;43013;-72
2023/10/17 03:01:38;;;;;;;2.05;1.35;;;;;;;;;;5095216;28;40933;-72
2023/10/17 03:04:08;;;;;;;1.85;1.42;;;;;;;;;;5109840;27;41817;-72
2023/10/17 03:06:38;;;;;;;2.83;1.40;;;;;;;;;;5089465;28;43029;-72
2023/10/17 03:12:19;;;;;;;2.47;1.50;;;;;;;;;;5168967;27;20997;-70
2023/10/17 03:17:35;;;;;;;2.22;1.30;;;;;;;;;;5168233;27;41299;-70
2023/10/17 03:20:04;;;;;;;1.88;1.38;;;;;;;;;;5168267;27;41439;-70
2023/10/17 03:22:35;;;;;;;2.47;1.60;;;;;;;;;;5158035;27;42037;-70
2023/10/17 03:25:09;;;;;;;2.55;1.45;;;;;;;;;;5170568;27;39643;-70
2023/10/17 03:27:48;;;;;;;1.85;1.38;;;;;;;;;;5182297;27;40225;-70
2023/10/17 03:30:19;;;;;;;2.90;1.45;;;;;;;;;;5178465;27;42228;-70
2023/10/17 03:33:03;;;;;;;3.00;1.52;;;;;;;;;;5172082;27;39676;-70
2023/10/17 03:35:35;;;;;;;1.58;1.23;;;;;;;;;;5168192;27;42145;-70
2023/10/17 03:38:03;;;;;;;2.58;1.48;;;;;;;;;;5156366;27;41574;-70
2023/10/17 03:40:36;;;;;;;1.75;1.17;;;;;;;;;;5165416;27;41161;-69
2023/10/17 03:43:11;;;;;;;2.17;1.50;;;;;;;;;;5165234;27;43235;-70
2023/10/17 03:45:52;;;;;;;2.05;1.35;;;;;;;;;;5164240;27;40390;-70
2023/10/17 03:48:21;;;;;;;1.98;1.45;;;;;;;;;;5166065;27;41125;-70
2023/10/17 03:50:58;;;;;;;2.22;1.40;;;;;;;;;;5169672;27;42005;-70
2023/10/17 03:53:29;;;;;;;2.10;1.60;;;;;;;;;;5158432;27;40025;-70
2023/10/17 03:56:00;;;;;;;1.77;1.23;;;;;;;;;;5177037;27;41994;-70
2023/10/17 03:58:43;;;;;;;2.25;1.40;;;;;;;;;;5163938;27;40779;-70
2023/10/17 04:01:12;;;;;;;2.05;1.50;;;;;;;;;;5147346;27;42468;-70
2023/10/17 04:03:42;;;;;;;3.00;1.70;;;;;;;;;;5166321;27;42184;-70
2023/10/17 04:06:18;;;;;;;2.03;1.33;;;;;;;;;;5167524;27;40293;-70
2023/10/17 04:09:15;;;;;;;1.80;1.40;;;;;;;;;;5165117;27;42524;-70
2023/10/17 04:11:49;;;;;;;2.15;1.40;;;;;;;;;;5150990;27;41367;-70
2023/10/17 04:14:20;;;;;;;1.58;1.23;;;;;;;;;;5164794;27;39873;-70
2023/10/17 04:16:49;;;;;;;1.35;1.20;;;;;;;;;;5150732;27;41662;-70
2023/10/17 04:19:20;;;;;;;1.83;1.40;;;;;;;;;;5171740;27;43592;-70
2023/10/17 04:21:51;;;;;;;1.90;1.50;;;;;;;;;;5151065;27;41213;-70
2023/10/17 04:24:29;;;;;;;1.80;1.33;;;;;;;;;;5137678;27;42147;-70
2023/10/17 04:27:06;;;;;;;1.50;1.30;;;;;;;;;;5135475;27;40665;-70
2023/10/17 04:29:37;;;;;;;1.30;1.20;;;;;;;;;;5136242;27;41192;-70
2023/10/17 04:32:13;;;;;;;1.95;1.40;;;;;;;;;;5141850;27;42204;-70
2023/10/17 04:34:45;;;;;;;1.73;1.40;;;;;;;;;;5164591;27;40279;-70
2023/10/17 04:37:16;;;;;;;1.75;1.30;;;;;;;;;;5135946;27;40948;-70
2023/10/17 04:39:49;;;;;;;2.25;1.45;;;;;;;;;;5150213;27;42215;-70
2023/10/17 04:42:25;;;;;;;1.58;1.27;;;;;;;;;;5154611;27;40377;-70
2023/10/17 04:45:02;;;;;;;1.48;1.20;;;;;;;;;;5158441;27;41997;-70
2023/10/17 04:47:30;;;;;;;2.33;1.40;;;;;;;;;;5136049;27;41894;-70
2023/10/17 04:49:58;;;;;;;1.55;1.30;;;;;;;;;;5150296;27;41537;-70
2023/10/17 04:52:40;;;;;;;3.42;1.40;;;;;;;;;;5151504;27;42269;-71
2023/10/17 04:55:17;;;;;;;1.67;1.25;;;;;;;;;;5153140;27;40660;-70
2023/10/17 04:57:58;;;;;;;1.95;1.35;;;;;;;;;;5148307;27;42602;-70
2023/10/17 05:03:20;;;;;;;1.85;1.65;;;;;;;;;;5146777;27;40776;-70
2023/10/17 05:06:01;;;;;;;1.48;1.20;;;;;;;;;;5151331;27;42589;-70
2023/10/17 05:08:49;;;;;;;1.73;1.30;;;;;;;;;;5132756;27;39808;-69
2023/10/17 06:18:07;;;;;;;2.35;1.60;;;;;;;;;;5126216;27;40442;-70
2023/10/17 06:21:06;;;;;;;2.00;1.75;;;;;;;;;;5150815;27;42183;-70
2023/10/17 06:32:04;;;;;;;5.90;4.18;;;;;;;;;;5113960;27;40190;-67
2023/10/17 06:34:31;;;;;;;3.40;2.20;;;;;;;;;;5138134;27;41442;-68
2023/10/17 06:37:02;;;;;;;4.13;2.58;;;;;;;;;;5132908;27;41737;-68
2023/10/17 06:39:37;;;;;;;3.72;2.70;;;;;;;;;;5129241;27;40847;-67
2023/10/17 06:42:18;;;;;;;5.50;3.13;;;;;;;;;;5146313;27;41361;-66
2023/10/17 06:45:01;;;;;;;5.72;3.35;;;;;;;;;;5146539;27;39441;-66
2023/10/17 06:47:41;;;;;;;3.88;2.83;;;;;;;;;;5134631;27;41619;-66
2023/10/17 06:51:02;;;;;;;4.60;2.92;;;;;;;;;;5141293;27;42596;-66
2023/10/17 06:53:06;;;;;;;3.78;2.80;;;;;;;;;;5137513;27;41389;-66
2023/10/17 06:55:43;;;;;;;4.60;2.90;;;;;;;;;;5141837;27;41215;-66
2023/10/17 06:58:11;;;;;;;4.45;2.50;;;;;;;;;;5156901;27;41771;-67
2023/10/17 07:00:44;;;;;;;3.90;2.40;;;;;;;;;;5140958;27;40523;-67
2023/10/17 07:03:14;;;;;;;3.10;2.40;;;;;;;;;;5150767;27;42646;-67
2023/10/17 07:05:49;;;;;;;5.40;3.28;;;;;;;;;;5141142;27;42595;-69
2023/10/17 07:08:19;;;;;;;3.67;2.35;;;;;;;;;;5144386;27;41066;-70
2023/10/17 07:11:02;;;;;;;11.40;2.65;;;;;;;;;;5144330;27;43026;-69
2023/10/17 07:13:50;;;;;;;3.83;2.50;;;;;;;;;;5141679;27;39718;-69
2023/10/17 07:16:25;;;;;;;4.63;2.45;;;;;;;;;;5151244;27;41611;-70
2023/10/17 07:18:53;;;;;;;5.75;2.75;;;;;;;;;;5140317;27;42729;-69
2023/10/17 07:21:24;;;;;;;3.13;2.10;;;;;;;;;;5132390;27;39988;-69
2023/10/17 07:23:54;;;;;;;3.70;2.47;;;;;;;;;;5135371;27;41056;-70
2023/10/17 07:29:06;;;;;;;5.28;2.50;;;;;;;;;;5142543;27;40922;-69
2023/10/17 07:31:36;;;;;;;4.45;2.97;;;;;;;;;;5139916;27;42175;-69
2023/10/17 07:34:18;;;;;;;5.25;2.88;;;;;;;;;;5139239;27;40405;-71
2023/10/17 07:36:48;;;;;;;5.63;2.47;;;;;;;;;;5135818;27;42073;-72
2023/10/17 07:39:22;;;;;;;3.20;2.60;;;;;;;;;;5143464;27;43173;-67
2023/10/17 07:41:55;;;;;;;5.45;1.80;;;;;;;;;;5137221;27;39474;-68
2023/10/17 07:44:25;;;;;;;5.65;2.47;;;;;;;;;;5140256;27;42036;-66
2023/10/17 07:47:08;;;;;;;3.95;2.20;;;;;;;;;;5134028;27;42503;-67
2023/10/17 07:49:36;;;;;;;3.75;2.05;;;;;;;;;;5132426;27;41335;-67
2023/10/17 07:52:07;;;;;;;6.95;2.58;;;;;;;;;;5146305;27;43200;-67
2023/10/17 07:54:38;;;;;;;9.75;2.05;;;;;;;;;;5127038;27;39367;-67
2023/10/17 07:57:14;;;;;;;8.15;2.83;;;;;;;;;;5140651;27;41675;-66
2023/10/17 07:59:50;;;;;;;4.22;2.20;;;;;;;;;;5135822;27;43239;-67
2023/10/17 08:02:20;;;;;;;3.35;2.00;;;;;;;;;;5145414;27;40933;-67
2023/10/17 08:04:50;;;;;;;4.13;1.98;;;;;;;;;;5133048;27;41162;-68
2023/10/17 08:07:20;;;;;;;6.97;1.60;;;;;;;;;;5149435;27;42952;-69
2023/10/17 08:09:56;;;;;;;7.15;1.70;;;;;;;;;;5144318;27;40169;-69
2023/10/17 08:12:29;;;;;;;2.67;1.73;;;;;;;;;;5138882;27;42322;-71
2023/10/17 08:15:17;;;;;;;2.03;1.20;;;;;;;;;;5149628;27;40154;-71
2023/10/17 08:17:48;;;;;;;3.08;1.30;;;;;;;;;;5153362;27;41461;-71
2023/10/17 08:23:06;;;;;;;9.15;1.80;;;;;;;;;;5157520;27;39847;-70
2023/10/17 08:25:52;;;;;;;6.22;1.40;;;;;;;;;;5146096;27;41009;-68
2023/10/17 08:28:33;;;;;;;6.97;1.70;;;;;;;;;;5140638;27;43134;-68
2023/10/17 08:31:13;;;;;;;3.45;1.65;;;;;;;;;;5138346;27;40211;-66
2023/10/17 08:33:44;;;;;;;4.13;1.55;;;;;;;;;;5135749;27;41535;-66
2023/10/17 08:36:12;;;;;;;5.13;1.30;;;;;;;;;;5141200;27;41539;-66
2023/10/17 08:38:40;;;;;;;4.97;1.67;;;;;;;;;;5147494;27;41330;-65
2023/10/17 08:41:07;;;;;;;4.82;1.42;;;;;;;;;;5152283;27;41930;-66
2023/10/17 08:43:38;;;;;;;3.47;1.25;;;;;;;;;;5150049;27;41264;-65
2023/10/17 08:46:10;;;;;;;3.22;1.17;;;;;;;;;;5152149;27;42584;-67
2023/10/17 08:48:39;;;;;;;4.35;1.25;;;;;;;;;;5147743;27;43117;-67
2023/10/17 08:51:07;;;;;;;4.05;0.82;;;;;;;;;;5150396;27;40085;-67
2023/10/17 08:53:55;;;;;;;3.17;1.30;;;;;;;;;;5130839;27;41704;-67
2023/10/17 08:56:23;;;;;;;3.00;1.10;;;;;;;;;;5144002;27;41613;-67
2023/10/17 08:59:03;;;;;;;5.75;1.45;;;;;;;;;;5143296;27;39711;-73
2023/10/17 09:01:31;;;;;;;2.33;0.93;;;;;;;;;;5140512;27;41601;-72
2023/10/17 09:04:03;;;;;;;5.90;1.35;;;;;;;;;;5151634;27;41014;-72
2023/10/17 09:06:32;;;;;;;1.92;0.68;;;;;;;;;;5143726;27;42312;-71
2023/10/17 09:09:18;;;;;;;1.35;0.73;;;;;;;;;;5142191;27;42078;-72
2023/10/17 09:14:44;;;;;;;3.38;0.90;;;;;;;;;;5149679;27;41803;-71
2023/10/17 09:17:16;;;;;;;2.10;0.88;;;;;;;;;;5143716;27;42164;-71
2023/10/17 09:19:52;;;;;;;2.47;0.70;;;;;;;;;;5145306;27;39973;-72
2023/10/17 09:22:36;;;;;;;1.67;0.90;;;;;;;;;;5145965;27;41507;-71
2023/10/17 09:25:15;;;;;;;3.28;1.15;;;;;;;;;;5151281;27;41248;-71
2023/10/17 09:27:44;;;;;;;1.88;1.00;;;;;;;;;;5138101;27;41443;-70
2023/10/17 09:30:17;;;;;;;1.98;0.80;;;;;;;;;;5142548;27;41545;-70
2023/10/17 09:32:46;;;;;;;2.67;0.70;;;;;;;;;;5147439;27;41237;-68
2023/10/17 09:35:15;;;;;;;5.95;0.70;;;;;;;;;;5161771;27;42448;-67
2023/10/17 09:37:43;;;;;;;5.05;0.73;;;;;;;;;;5136303;27;42402;-68
2023/10/17 09:40:18;;;;;;;3.90;0.68;;;;;;;;;;5146647;27;40766;-67
2023/10/17 09:42:47;;;;;;;1.15;0.70;;;;;;;;;;5138336;27;41838;-67
2023/10/17 09:45:17;;;;;;;4.20;0.73;;;;;;;;;;5130692;27;43139;-68
2023/10/17 09:48:04;;;;;;;2.83;0.50;;;;;;;;;;5136987;27;41401;-74
2023/10/17 09:50:34;;;;;;;1.83;0.60;;;;;;;;;;5136639;27;42799;-75
2023/10/17 09:53:04;;;;;;;5.90;1.02;;;;;;;;;;5139307;27;40288;-77
2023/10/17 09:55:32;;;;;;;5.05;1.30;;;;;;;;;;5147003;27;41012;-73
2023/10/17 09:58:02;;;;;;;4.80;0.93;;;;;;;;;;5155464;27;41675;-72
2023/10/17 10:00:37;;;;;;;8.05;1.00;;;;;;;;;;5154712;27;41454;-72
2023/10/17 10:03:05;;;;;;;14.88;1.25;;;;;;;;;;5149717;27;41593;-72
2023/10/17 10:05:42;;;;;;;6.65;0.90;;;;;;;;;;5154651;27;42109;-72
2023/10/17 10:08:32;;;;;;;2.75;0.73;;;;;;;;;;5154713;27;42355;-72
2023/10/17 10:11:00;;;;;;;1.08;0.70;;;;;;;;;;5149280;27;42507;-73
2023/10/17 10:13:28;;;;;;;3.20;1.17;;;;;;;;;;5148986;27;40188;-72
2023/10/17 10:15:59;;;;;;;6.03;0.65;;;;;;;;;;5159590;27;42440;-72
2023/10/17 10:18:47;;;;;;;4.40;0.93;;;;;;;;;;5155188;27;43056;-71
2023/10/17 10:21:15;;;;;;;7.55;1.00;;;;;;;;;;5148945;27;40883;-67
2023/10/17 10:23:45;;;;;;;4.50;0.98;;;;;;;;;;5142861;27;42279;-70
2023/10/17 10:26:17;;;;;;;4.70;0.95;;;;;;;;;;5154812;27;40633;-68
2023/10/17 10:28:45;;;;;;;4.35;0.98;;;;;;;;;;5155247;27;41337;-67
2023/10/17 10:31:31;;;;;;;6.97;1.15;;;;;;;;;;5139142;27;42633;-66
2023/10/17 10:34:01;;;;;;;7.90;0.80;;;;;;;;;;5141477;27;39897;-66
2023/10/17 10:36:29;;;;;;;4.43;0.80;;;;;;;;;;5142233;27;41259;-66
2023/10/17 10:38:57;;;;;;;6.18;0.80;;;;;;;;;;5148472;27;41835;-66
2023/10/17 10:41:25;;;;;;;8.63;1.23;;;;;;;;;;5137049;27;40891;-66
2023/10/17 10:43:58;;;;;;;10.98;1.02;;;;;;;;;;5145250;27;41388;-68
2023/10/17 10:46:28;;;;;;;6.47;1.13;;;;;;;;;;5141489;27;42740;-70
2023/10/17 10:48:56;;;;;;;5.63;1.20;;;;;;;;;;5136401;27;40369;-67
2023/10/17 10:51:26;;;;;;;4.45;0.95;;;;;;;;;;5142446;27;41166;-66
2023/10/17 10:53:56;;;;;;;6.32;1.10;;;;;;;;;;5131415;27;40179;-67
2023/10/17 10:56:25;;;;;;;2.78;0.80;;;;;;;;;;5135857;27;40953;-67
2023/10/17 10:58:55;;;;;;;7.10;1.40;;;;;;;;;;5150039;27;42003;-66
2023/10/17 11:01:23;;;;;;;3.83;1.00;;;;;;;;;;5153109;27;40738;-66
2023/10/17 11:03:51;;;;;;;7.40;0.80;;;;;;;;;;5150248;27;41595;-66
2023/10/17 11:06:24;;;;;;;4.03;0.80;;;;;;;;;;5150507;27;41897;-75
2023/10/17 11:08:54;;;;;;;3.53;1.00;;;;;;;;;;5150138;27;40524;-74
2023/10/17 11:11:23;;;;;;;3.65;0.95;;;;;;;;;;5150159;27;42080;-74
2023/10/17 11:13:51;;;;;;;3.72;0.90;;;;;;;;;;5150126;27;41966;-73
2023/10/17 11:16:21;;;;;;;6.95;0.77;;;;;;;;;;5148827;27;41952;-74
2023/10/17 11:18:50;;;;;;;4.20;1.08;;;;;;;;;;5146640;27;41936;-74
2023/10/17 11:21:19;;;;;;;3.25;0.90;;;;;;;;;;5147576;27;41262;-74
2023/10/17 11:23:50;;;;;;;6.53;1.05;;;;;;;;;;5134184;27;42223;-74
2023/10/17 11:26:21;;;;;;;1.40;0.73;;;;;;;;;;5147913;27;43067;-74
2023/10/17 11:28:56;;;;;;;3.75;0.63;;;;;;;;;;5148760;27;40223;-74
2023/10/17 11:31:24;;;;;;;5.45;1.08;;;;;;;;;;5139019;27;41554;-74
2023/10/17 11:33:54;;;;;;;3.30;1.00;;;;;;;;;;5151326;27;43085;-74
2023/10/17 11:36:23;;;;;;;1.77;0.70;;;;;;;;;;5135973;27;40630;-74
2023/10/17 11:38:54;;;;;;;3.38;0.80;;;;;;;;;;5144191;27;41969;-74
2023/10/17 11:41:30;;;;;;;2.78;0.90;;;;;;;;;;5142923;27;40593;-74
2023/10/17 11:44:04;;;;;;;2.03;0.88;;;;;;;;;;5145577;27;41921;-74
2023/10/17 11:46:32;;;;;;;1.48;0.60;;;;;;;;;;5130602;27;42643;-75
2023/10/17 11:49:20;;;;;;;2.83;0.85;;;;;;;;;;5144736;27;40500;-74
2023/10/17 11:51:51;;;;;;;2.70;0.80;;;;;;;;;;5143336;27;41252;-74
2023/10/17 11:54:22;;;;;;;1.50;0.75;;;;;;;;;;5135915;27;43192;-74
2023/10/17 11:57:01;;;;;;;2.08;0.70;;;;;;;;;;5155935;27;39832;-74
2023/10/17 11:59:28;;;;;;;3.25;0.80;;;;;;;;;;5140693;27;41643;-74
2023/10/17 12:01:58;;;;;;;1.95;0.57;;;;;;;;;;5155382;27;40441;-74
2023/10/17 12:04:27;;;;;;;4.70;0.60;;;;;;;;;;5150497;27;41368;-75
2023/10/17 12:06:55;;;;;;;3.28;0.90;;;;;;;;;;5159988;27;42669;-74
2023/10/17 12:09:23;;;;;;;5.03;0.75;;;;;;;;;;5165583;27;40279;-74
2023/10/17 12:11:52;;;;;;;2.95;0.57;;;;;;;;;;5167755;27;41512;-74
2023/10/17 12:14:21;;;;;;;1.05;0.60;;;;;;;;;;5154284;27;42045;-74
2023/10/17 12:16:49;;;;;;;3.60;0.80;;;;;;;;;;5150156;27;40514;-75
2023/10/17 12:19:18;;;;;;;2.03;0.98;;;;;;;;;;5136129;27;41662;-74
2023/10/17 12:21:47;;;;;;;1.45;0.75;;;;;;;;;;5154925;27;40315;-75
2023/10/17 12:24:19;;;;;;;3.92;0.52;;;;;;;;;;5154437;27;41502;-75
2023/10/17 12:26:49;;;;;;;3.88;0.73;;;;;;;;;;5161654;27;41710;-73
2023/10/17 12:29:17;;;;;;;1.15;0.65;;;;;;;;;;5139918;27;40495;-69
2023/10/17 12:31:46;;;;;;;3.45;0.90;;;;;;;;;;5131768;27;41177;-70
2023/10/17 12:34:16;;;;;;;3.20;0.80;;;;;;;;;;5142971;27;43338;-69
2023/10/17 12:36:46;;;;;;;6.57;0.70;;;;;;;;;;5135778;27;39776;-68
2023/10/17 12:39:16;;;;;;;2.20;0.77;;;;;;;;;;5150902;27;41194;-67
2023/10/17 12:41:45;;;;;;;1.77;0.85;;;;;;;;;;5140641;27;41931;-66
2023/10/17 12:44:13;;;;;;;2.33;0.73;;;;;;;;;;5138392;27;41311;-67
2023/10/17 12:46:42;;;;;;;5.88;0.60;;;;;;;;;;5132162;27;42049;-67
2023/10/17 12:49:11;;;;;;;5.53;0.85;;;;;;;;;;5148512;27;39833;-66
2023/10/17 12:51:40;;;;;;;1.88;0.60;;;;;;;;;;5143935;27;41240;-66
2023/10/17 12:54:09;;;;;;;2.97;0.40;;;;;;;;;;5151927;27;43129;-67
2023/10/17 12:56:37;;;;;;;1.75;0.68;;;;;;;;;;5138745;27;40309;-67
2023/10/17 12:59:05;;;;;;;2.08;0.55;;;;;;;;;;5153980;27;41655;-67
2023/10/17 13:01:33;;;;;;;1.70;0.50;;;;;;;;;;5161171;27;41954;-67
2023/10/17 13:04:02;;;;;;;1.58;0.60;;;;;;;;;;5157898;27;40365;-68
2023/10/17 13:06:31;;;;;;;1.60;0.50;;;;;;;;;;5150320;27;43659;-68
2023/10/17 13:09:00;;;;;;;6.18;0.98;;;;;;;;;;5152558;27;41295;-68
2023/10/17 13:11:28;;;;;;;3.95;0.57;;;;;;;;;;5161377;27;41808;-67
2023/10/17 13:13:57;;;;;;;1.13;0.43;;;;;;;;;;5155907;27;43441;-66
2023/10/17 13:16:27;;;;;;;1.27;0.60;;;;;;;;;;5164839;27;40158;-68
2023/10/17 13:18:56;;;;;;;3.78;0.93;;;;;;;;;;5160580;27;43466;-68
2023/10/17 13:21:25;;;;;;;4.13;0.65;;;;;;;;;;5149325;27;42742;-66
2023/10/17 13:23:58;;;;;;;0.63;0.43;;;;;;;;;;5142826;27;41289;-67
2023/10/17 13:26:27;;;;;;;4.10;0.60;;;;;;;;;;5156200;27;41941;-66
2023/10/17 13:28:55;;;;;;;2.40;0.50;;;;;;;;;;5145769;27;40625;-67
2023/10/17 13:31:23;;;;;;;1.08;0.65;;;;;;;;;;5160144;27;42149;-67
2023/10/17 13:33:55;;;;;;;2.92;0.57;;;;;;;;;;5148985;27;41697;-66
2023/10/17 13:36:23;;;;;;;2.03;0.63;;;;;;;;;;5157881;27;40327;-66
2023/10/17 13:38:51;;;;;;;3.53;0.82;;;;;;;;;;5157226;27;42641;-67
2023/10/17 13:41:21;;;;;;;0.77;0.55;;;;;;;;;;5149573;27;42039;-67
2023/10/17 13:43:49;;;;;;;0.98;0.40;;;;;;;;;;5141114;27;41249;-67
2023/10/17 13:46:18;;;;;;;1.10;0.50;;;;;;;;;;5155696;27;40937;-67
2023/10/17 13:48:48;;;;;;;0.75;0.45;;;;;;;;;;5160952;27;42111;-67
2023/10/17 13:51:16;;;;;;;1.02;0.60;;;;;;;;;;5143014;27;41678;-68
2023/10/17 13:53:44;;;;;;;2.53;0.80;;;;;;;;;;5164881;27;42086;-67
2023/10/17 13:56:12;;;;;;;2.20;0.50;;;;;;;;;;5152230;27;40294;-70
2023/10/17 13:58:44;;;;;;;0.70;0.50;;;;;;;;;;5157985;27;41504;-72
2023/10/17 14:03:54;;;;;;;9.43;1.35;;;;;;;;;;5147853;27;41184;-71
2023/10/17 14:06:27;;;;;;;3.63;0.68;;;;;;;;;;5153517;27;42282;-71
2023/10/17 14:08:55;;;;;;;4.90;0.80;;;;;;;;;;5151236;27;42721;-70
2023/10/17 14:11:24;;;;;;;4.00;1.15;;;;;;;;;;5148467;27;40282;-71
2023/10/17 14:13:54;;;;;;;2.55;0.60;;;;;;;;;;5147931;27;41925;-71
2023/10/17 14:16:23;;;;;;;5.00;0.90;;;;;;;;;;5151727;27;39459;-71
2023/10/17 14:19:04;;;;;;;4.53;0.65;;;;;;;;;;5150453;27;41538;-71
2023/10/17 14:21:36;;;;;;;2.10;0.70;;;;;;;;;;5152808;27;41980;-71
2023/10/17 14:24:10;;;;;;;8.02;1.27;;;;;;;;;;5153317;27;39906;-71
2023/10/17 14:26:39;;;;;;;6.20;0.85;;;;;;;;;;5153041;27;42084;-71
2023/10/17 14:29:07;;;;;;;7.63;0.93;;;;;;;;;;5143212;27;41729;-71
2023/10/17 14:31:36;;;;;;;11.18;1.25;;;;;;;;;;5139962;27;40223;-70
2023/10/17 14:34:04;;;;;;;2.72;0.85;;;;;;;;;;5139726;27;40811;-69
2023/10/17 14:36:32;;;;;;;11.40;1.55;;;;;;;;;;5136255;27;40084;-70
2023/10/17 14:39:00;;;;;;;10.13;1.05;;;;;;;;;;5133244;27;42127;-71
2023/10/17 14:41:28;;;;;;;9.63;1.25;;;;;;;;;;5144107;27;42165;-71
2023/10/17 14:43:56;;;;;;;7.72;1.02;;;;;;;;;;5147432;27;40372;-71
2023/10/17 14:46:25;;;;;;;48.42;4.40;;;;;;;;;;5140286;27;41639;-69
2023/10/17 14:48:53;;;;;;;29.20;2.30;;;;;;;;;;5131046;27;41739;-70
2023/10/17 14:51:22;;;;;;;30.65;2.42;;;;;;;;;;5128305;27;40256;-71
2023/10/17 14:53:50;;;;;;;22.73;2.10;;;;;;;;;;5134643;27;41283;-74
2023/10/17 14:56:21;;;;;;;20.00;1.55;;;;;;;;;;5140813;27;40792;-74
2023/10/17 14:58:49;;;;;;;25.33;1.75;;;;;;;;;;5140840;27;40886;-75
2023/10/17 15:01:18;;;;;;;36.42;1.63;;;;;;;;;;5139008;27;41903;-76
2023/10/17 15:03:47;;;;;;;19.08;1.55;;;;;;;;;;5137136;27;40729;-74
2023/10/17 15:06:16;;;;;;;11.60;1.30;;;;;;;;;;5139565;27;40864;-77
2023/10/17 15:08:44;;;;;;;12.43;1.58;;;;;;;;;;5133977;27;42857;-75
2023/10/17 15:11:12;;;;;;;12.73;1.90;;;;;;;;;;5137416;27;40778;-75
2023/10/17 15:13:40;;;;;;;11.43;1.27;;;;;;;;;;5147628;27;42113;-74
2023/10/17 15:16:14;;;;;;;5.10;1.02;;;;;;;;;;5134929;27;41723;-73
2023/10/17 15:18:43;;;;;;;7.32;1.20;;;;;;;;;;5140661;27;41261;-76
2023/10/17 15:21:13;;;;;;;13.60;1.75;;;;;;;;;;5160651;27;42189;-80
2023/10/17 15:23:41;;;;;;;4.63;1.90;;;;;;;;;;5156797;27;40726;-76
2023/10/17 15:26:10;;;;;;;7.28;1.83;;;;;;;;;;5153899;27;41494;-79
2023/10/17 15:28:38;;;;;;;4.15;1.48;;;;;;;;;;5149434;27;41910;-79
2023/10/17 15:31:07;;;;;;;4.60;1.63;;;;;;;;;;5145521;27;39843;-80
2023/10/17 15:33:35;;;;;;;8.10;1.70;;;;;;;;;;5137748;27;41313;-72
2023/10/17 15:36:03;;;;;;;8.43;1.30;;;;;;;;;;5137324;27;42621;-72
2023/10/17 15:38:33;;;;;;;16.67;2.05;;;;;;;;;;5158587;27;40775;-72
2023/10/17 15:41:01;;;;;;;14.80;2.90;;;;;;;;;;5147197;27;41537;-72
2023/10/17 15:43:29;;;;;;;17.50;2.90;;;;;;;;;;5158148;27;40148;-73
2023/10/17 15:45:57;;;;;;;24.33;2.35;;;;;;;;;;5165429;27;41174;-73
2023/10/17 15:48:25;;;;;;;17.13;3.08;;;;;;;;;;5166269;27;42396;-73
2023/10/17 15:50:55;;;;;;;19.83;2.63;;;;;;;;;;5141986;27;39972;-72
2023/10/17 15:53:23;;;;;;;33.28;5.50;;;;;;;;;;5130869;27;42256;-71
2023/10/17 15:55:53;;;;;;;38.58;5.00;;;;;;;;;;5130029;27;41399;-71
2023/10/17 15:58:21;;;;;;;33.58;4.82;;;;;;;;;;5144444;27;40637;-71
2023/10/17 16:00:50;;;;;;;28.75;3.85;;;;;;;;;;5152280;27;42551;-71
2023/10/17 16:03:18;;;;;;;27.42;4.47;;;;;;;;;;5151078;27;40246;-71
2023/10/17 16:05:46;;;;;;;27.42;3.78;;;;;;;;;;5150731;27;42563;-73
2023/10/17 16:08:14;;;;;;;22.77;3.65;;;;;;;;;;5150710;27;40844;-73
2023/10/17 16:10:42;;;;;;;22.92;4.50;;;;;;;;;;5153391;27;41353;-72
2023/10/17 16:13:11;;;;;;;24.85;3.67;;;;;;;;;;5148953;27;42294;-73
2023/10/17 16:15:39;;;;;;;16.23;3.55;;;;;;;;;;5142977;27;41670;-78
2023/10/17 16:18:08;;;;;;;14.13;3.15;;;;;;;;;;5151713;27;40025;-76
2023/10/17 16:20:41;;;;;;;15.70;2.83;;;;;;;;;;5151406;27;42248;-69
2023/10/17 16:23:09;;;;;;;22.98;3.42;;;;;;;;;;5157267;27;33840;-72
2023/10/17 16:25:39;;;;;;;23.67;3.50;;;;;;;;;;5149708;27;42281;-68
2023/10/17 16:28:07;;;;;;;19.25;3.15;;;;;;;;;;5136624;27;42732;-71
2023/10/17 16:30:39;;;;;;;13.88;3.20;;;;;;;;;;5135478;27;40256;-73
2023/10/17 16:33:08;;;;;;;15.82;3.28;;;;;;;;;;5138019;27;42607;-72
2023/10/17 16:35:37;;;;;;;17.13;3.88;;;;;;;;;;5135370;27;42008;-72
2023/10/17 16:38:05;;;;;;;13.13;2.90;;;;;;;;;;5136750;27;40318;-71
2023/10/17 16:40:33;;;;;;;13.10;2.78;;;;;;;;;;5138609;27;41919;-72